Terminal Aerodrome Forecast
Issued by NWS Pendleton, OR

Home | Current Version | Previous Version | Text Only | Print | Product List | Glossary On
Versions: 1 2 3 4 5 6 7 8 9 10 11 12 13 14
000
FTUS46 KPDT 300537
TAFPDT
TAF
KPDT 300537Z 3006/3106 15007KT P6SM BKN100
     FM301000 25008KT P6SM SCT050 BKN100
      TEMPO 3010/3014 -RA BKN050 BKN100
     FM301500 25012KT P6SM -RA OVC050
     FM302200 25016G26KT P6SM SCT050 BKN080
     FM310400 25014G24KT P6SM SCT100=

USA.gov is the U.S. government's official web portal to all federal, state and local government web resources and services.